CAS3 weather

Barkerville Airport
Barkerville, British Columbia, Canada

Public forecast

Using degrees Celsius for public forecast. Weather courtesy of forecast.io.

METAR (pilot weather report)

Closest report is Quesnel Airport, 36.1 nm (66.9 km) W. Retrieved 2019/08/25 02:00 UTC (18 minutes ago):

CYQZ 250200Z AUTO 03004KT 010V080 9SM OVC085 15/13 A2987 RMK SLP125 DENSITY ALT 2300FT

TAF (pilot weather forecast)

Closest forecast is Quesnel Airport, 36.1 nm (66.9 km) W. Retrieved 2019/08/25 01:00 UTC (1 hour ago):

TAF CYQZ 250038Z 2501/2506 VRB03KT P6SM SCT080 BKN130 TEMPO 2501/2503 P6SM -SHRA VCTS BKN080CB FM250300 VRB03KT P6SM BKN080 RMK FCST BASED ON AUTO OBS. NXT FCST WILL BE ISSUED AT 251145Z